Time;durP1;ratioP1;P1;durP2;ratioP2;P2;SDS_P1;SDS_P2;PMS_P1;PMS_P2;Temp;Humidity;BMP_temperature;BMP_pressure;BME280_temperature;BME280_humidity;BME280_pressure;Samples;Min_cycle;Max_cycle;Signal;HPM_P1;HPM_P2
2022/07/01 00:00:12;;;;;;;1.30;1.20;;;17.10;99.90;;;;;;5112833;27;20258;-70
2022/07/01 00:02:39;;;;;;;1.67;1.30;;;17.10;99.90;;;;;;5113657;28;20233;-70
2022/07/01 00:05:06;;;;;;;2.35;1.50;;;17.10;99.90;;;;;;5112482;28;20207;-70
2022/07/01 00:07:33;;;;;;;1.70;1.55;;;17.20;99.90;;;;;;5112693;28;20216;-71
2022/07/01 00:10:00;;;;;;;1.73;1.63;;;17.30;99.90;;;;;;5112784;27;20248;-70
2022/07/01 00:12:27;;;;;;;3.15;1.77;;;17.20;99.90;;;;;;5113217;28;20240;-71
2022/07/01 00:14:55;;;;;;;1.88;1.70;;;17.20;99.90;;;;;;5112444;28;20284;-71
2022/07/01 00:17:22;;;;;;;2.08;1.50;;;17.10;99.90;;;;;;5112938;28;20232;-71
2022/07/01 00:19:50;;;;;;;2.40;1.60;;;17.20;99.90;;;;;;5112366;28;20272;-70
2022/07/01 00:22:17;;;;;;;3.92;3.15;;;17.30;99.90;;;;;;5112773;28;20230;-70
2022/07/01 00:24:45;;;;;;;2.60;2.08;;;17.30;99.90;;;;;;5112744;28;20201;-69
2022/07/01 00:27:12;;;;;;;2.72;1.77;;;17.30;99.90;;;;;;5112649;28;20212;-68
2022/07/01 00:29:39;;;;;;;2.00;1.80;;;17.40;99.90;;;;;;5112114;28;20583;-69
2022/07/01 00:32:09;;;;;;;1.48;1.38;;;17.20;99.90;;;;;;5113007;28;20236;-70
2022/07/01 00:34:35;;;;;;;1.38;1.15;;;17.10;99.90;;;;;;5112403;28;20296;-70
2022/07/01 00:37:03;;;;;;;5.50;2.33;;;17.00;99.90;;;;;;5112861;28;20209;-69
2022/07/01 00:39:31;;;;;;;2.03;1.10;;;17.00;99.90;;;;;;5112805;28;20274;-69
2022/07/01 00:42:00;;;;;;;0.68;0.68;;;17.00;99.90;;;;;;5112776;28;20352;-70
2022/07/01 00:44:28;;;;;;;1.35;1.25;;;17.10;99.90;;;;;;5112483;28;20215;-70
2022/07/01 00:46:56;;;;;;;2.40;1.95;;;17.10;99.90;;;;;;5112914;28;20213;-69
2022/07/01 00:49:26;;;;;;;1.08;1.08;;;17.00;99.90;;;;;;5112390;28;20575;-71
2022/07/01 00:51:53;;;;;;;2.22;0.82;;;16.90;99.90;;;;;;5112618;28;20197;-70
2022/07/01 00:54:21;;;;;;;1.00;1.00;;;16.90;99.90;;;;;;5112327;28;20243;-70
2022/07/01 00:56:48;;;;;;;1.10;1.02;;;16.90;99.90;;;;;;5112694;28;20643;-70
2022/07/01 00:59:15;;;;;;;1.10;1.00;;;16.70;99.90;;;;;;5112281;28;20244;-70
2022/07/01 01:01:43;;;;;;;1.83;1.30;;;16.70;99.90;;;;;;5112399;28;20221;-70
2022/07/01 01:04:10;;;;;;;1.23;1.13;;;16.60;99.90;;;;;;5112356;28;20197;-70
2022/07/01 01:06:38;;;;;;;0.90;0.90;;;16.70;99.90;;;;;;5112607;28;20236;-70
2022/07/01 01:09:05;;;;;;;0.80;0.80;;;16.70;99.90;;;;;;5112878;28;20209;-69
2022/07/01 01:11:32;;;;;;;1.08;0.82;;;16.70;99.90;;;;;;5113746;28;20578;-69
2022/07/01 01:13:59;;;;;;;0.77;0.77;;;16.80;99.90;;;;;;5113452;28;20211;-69
2022/07/01 01:16:26;;;;;;;0.80;0.80;;;16.90;99.90;;;;;;5113588;28;20295;-69
2022/07/01 01:18:54;;;;;;;1.00;1.00;;;16.90;99.90;;;;;;5113610;28;20197;-69
2022/07/01 01:21:22;;;;;;;1.05;0.80;;;16.80;99.90;;;;;;5113190;28;20221;-69
2022/07/01 01:23:49;;;;;;;1.38;1.02;;;16.80;99.90;;;;;;5113274;28;20674;-69
2022/07/01 01:26:18;;;;;;;1.65;1.10;;;16.80;99.90;;;;;;5113543;28;20201;-68
2022/07/01 01:28:45;;;;;;;1.08;0.88;;;16.80;99.90;;;;;;5113452;28;20241;-69
2022/07/01 01:31:12;;;;;;;1.08;0.95;;;16.70;99.90;;;;;;5113208;28;20267;-68
2022/07/01 01:33:39;;;;;;;0.82;0.80;;;16.70;99.90;;;;;;5113492;28;20314;-68
2022/07/01 01:36:06;;;;;;;2.40;0.90;;;16.70;99.90;;;;;;5113138;28;20244;-68
2022/07/01 01:38:35;;;;;;;1.30;1.13;;;16.70;99.90;;;;;;5113421;28;20208;-68
2022/07/01 01:41:03;;;;;;;1.60;1.50;;;16.60;99.90;;;;;;5115794;28;20316;-68
2022/07/01 01:43:30;;;;;;;1.33;0.73;;;16.60;99.90;;;;;;5117008;28;20228;-68
2022/07/01 01:45:57;;;;;;;0.95;0.95;;;16.60;99.90;;;;;;5116614;28;20241;-68
2022/07/01 01:48:24;;;;;;;1.00;1.00;;;16.60;99.90;;;;;;5116949;28;20240;-69
2022/07/01 01:50:51;;;;;;;1.00;1.00;;;16.70;99.90;;;;;;5116884;28;20310;-68
2022/07/01 01:53:18;;;;;;;0.90;0.90;;;16.60;99.90;;;;;;5116736;28;20244;-68
2022/07/01 01:55:46;;;;;;;0.88;0.88;;;16.70;99.90;;;;;;5116627;28;20201;-68
2022/07/01 01:58:13;;;;;;;1.15;1.15;;;16.70;99.90;;;;;;5116662;28;20239;-68
2022/07/01 02:00:40;;;;;;;1.30;1.00;;;16.70;99.90;;;;;;5116683;28;20263;-68
2022/07/01 02:03:07;;;;;;;1.08;1.00;;;16.70;99.90;;;;;;5116642;28;20259;-68
2022/07/01 02:05:35;;;;;;;1.00;1.00;;;16.70;99.90;;;;;;5116421;28;20287;-68
2022/07/01 02:08:03;;;;;;;1.10;1.00;;;16.60;99.90;;;;;;5116472;28;20285;-68
2022/07/01 02:10:30;;;;;;;1.02;1.02;;;16.60;99.90;;;;;;5116374;28;20249;-68
2022/07/01 02:12:58;;;;;;;0.90;0.90;;;16.50;99.90;;;;;;5116194;28;20247;-69
2022/07/01 02:15:25;;;;;;;0.98;0.98;;;16.50;99.90;;;;;;5116239;28;20235;-68
2022/07/01 02:17:56;;;;;;;1.30;1.20;;;16.50;99.90;;;;;;5116218;28;20214;-68
2022/07/01 02:20:23;;;;;;;1.00;1.00;;;16.40;99.90;;;;;;5116294;28;20315;-68
2022/07/01 02:22:51;;;;;;;1.08;1.08;;;16.40;99.90;;;;;;5116247;28;20279;-68
2022/07/01 02:25:18;;;;;;;1.20;1.10;;;16.30;99.90;;;;;;5116010;28;20215;-68
2022/07/01 02:27:45;;;;;;;1.40;1.30;;;16.30;99.90;;;;;;5115941;28;20208;-68
2022/07/01 02:30:14;;;;;;;1.20;1.20;;;16.30;99.90;;;;;;5116116;28;20224;-69
2022/07/01 02:32:41;;;;;;;1.20;1.20;;;16.30;99.90;;;;;;5116096;28;20197;-68
2022/07/01 02:35:08;;;;;;;1.30;1.20;;;16.40;99.90;;;;;;5115692;28;20576;-68
2022/07/01 02:37:35;;;;;;;0.90;0.90;;;16.30;99.90;;;;;;5115933;28;20236;-68
2022/07/01 02:40:03;;;;;;;1.05;1.05;;;16.30;99.90;;;;;;5115602;28;20231;-69
2022/07/01 02:42:34;;;;;;;1.33;1.10;;;16.30;99.90;;;;;;5115818;28;20324;-68
2022/07/01 02:45:02;;;;;;;1.33;1.23;;;16.20;99.90;;;;;;5115590;28;20208;-68
2022/07/01 02:47:33;;;;;;;1.50;1.40;;;16.20;99.90;;;;;;5115817;28;20207;-68
2022/07/01 02:50:00;;;;;;;1.10;1.08;;;16.20;99.90;;;;;;5115711;28;20259;-68
2022/07/01 02:52:28;;;;;;;1.35;1.25;;;16.10;99.90;;;;;;5115082;28;20202;-68
2022/07/01 02:54:55;;;;;;;1.50;1.38;;;16.10;99.90;;;;;;5115526;28;20207;-68
2022/07/01 02:57:22;;;;;;;1.73;1.25;;;16.10;99.90;;;;;;5115619;28;20215;-68
2022/07/01 02:59:50;;;;;;;1.40;1.30;;;16.10;99.90;;;;;;5115523;28;20643;-68
2022/07/01 03:02:18;;;;;;;1.90;1.30;;;16.00;99.90;;;;;;5115220;28;20274;-68
2022/07/01 03:04:47;;;;;;;1.50;1.40;;;16.10;99.90;;;;;;5115136;28;20215;-68
2022/07/01 03:07:14;;;;;;;1.70;1.60;;;16.10;99.90;;;;;;5115232;28;20303;-68
2022/07/01 03:09:41;;;;;;;2.20;1.70;;;16.00;99.90;;;;;;5115331;28;20251;-68
2022/07/01 03:14:49;;;;;;;2.10;1.83;;;16.10;99.90;;;;;;5114744;27;20321;-68
2022/07/01 03:17:17;;;;;;;2.42;1.75;;;16.10;99.90;;;;;;5115153;28;20212;-68
2022/07/01 03:19:46;;;;;;;2.17;2.00;;;16.00;99.90;;;;;;5114855;28;20311;-68
2022/07/01 03:22:13;;;;;;;1.60;1.50;;;16.00;99.90;;;;;;5114877;28;20664;-68
2022/07/01 03:24:40;;;;;;;1.83;1.60;;;16.00;99.90;;;;;;5114760;28;20296;-68
2022/07/01 03:27:07;;;;;;;2.33;1.50;;;16.10;99.90;;;;;;5115039;28;20215;-68
2022/07/01 03:29:34;;;;;;;2.00;1.60;;;16.00;99.90;;;;;;5114876;28;20252;-69
2022/07/01 03:32:01;;;;;;;2.05;1.95;;;16.00;99.90;;;;;;5114957;28;20223;-68
2022/07/01 03:34:28;;;;;;;2.67;1.58;;;15.80;99.90;;;;;;5114746;28;20234;-68
2022/07/01 03:36:56;;;;;;;1.73;1.63;;;15.90;99.90;;;;;;5114869;28;20289;-68
2022/07/01 03:39:23;;;;;;;2.10;1.90;;;15.80;99.90;;;;;;5114768;27;20208;-69
2022/07/01 03:41:50;;;;;;;3.28;2.75;;;15.80;99.90;;;;;;5114770;28;20314;-68
2022/07/01 03:44:17;;;;;;;1.27;1.27;;;15.80;99.90;;;;;;5114439;28;20735;-68
2022/07/01 03:46:44;;;;;;;1.60;1.50;;;15.80;99.90;;;;;;5114695;28;20299;-68
2022/07/01 03:49:11;;;;;;;1.30;1.27;;;15.80;99.90;;;;;;5114631;28;20566;-68
2022/07/01 03:51:38;;;;;;;1.60;1.50;;;15.80;99.90;;;;;;5114681;28;20207;-68
2022/07/01 03:56:50;;;;;;;1.88;1.27;;;15.70;99.90;;;;;;5114559;28;20199;-68
2022/07/01 03:59:17;;;;;;;1.17;1.00;;;15.60;99.90;;;;;;5114130;28;20210;-68
2022/07/01 04:01:44;;;;;;;1.30;1.20;;;15.60;99.90;;;;;;5114139;28;20290;-68
2022/07/01 04:04:11;;;;;;;1.55;1.45;;;15.60;99.90;;;;;;5113692;28;20290;-68
2022/07/01 04:06:38;;;;;;;1.88;1.77;;;15.60;99.90;;;;;;5114176;28;20296;-68
2022/07/01 04:09:07;;;;;;;1.50;1.40;;;15.60;99.90;;;;;;5114321;28;20296;-69
2022/07/01 04:11:34;;;;;;;7.35;6.28;;;15.60;99.90;;;;;;5114301;28;20293;-68
2022/07/01 04:14:01;;;;;;;1.70;1.60;;;15.60;99.90;;;;;;5114078;28;20211;-68
2022/07/01 04:16:28;;;;;;;1.92;1.77;;;15.70;99.90;;;;;;5114482;28;20297;-68
2022/07/01 04:18:55;;;;;;;2.45;2.28;;;15.80;99.90;;;;;;5114075;28;20717;-68
2022/07/01 04:24:08;;;;;;;5.90;1.70;;;15.80;99.90;;;;;;5114070;28;20202;-68
2022/07/01 04:26:35;;;;;;;2.97;2.70;;;15.90;99.90;;;;;;5113869;28;20208;-68
2022/07/01 04:29:02;;;;;;;2.10;1.90;;;15.90;99.90;;;;;;5114101;28;20290;-68
2022/07/01 04:31:29;;;;;;;2.60;2.35;;;16.00;99.90;;;;;;5113826;28;20296;-68
2022/07/01 04:33:56;;;;;;;1.70;1.48;;;16.00;99.90;;;;;;5113822;28;20288;-68
2022/07/01 04:36:23;;;;;;;1.52;1.42;;;16.10;99.90;;;;;;5113993;28;20295;-68
2022/07/01 04:38:50;;;;;;;1.48;1.38;;;16.10;99.90;;;;;;5113984;28;20295;-68
2022/07/01 04:44:03;;;;;;;1.45;1.35;;;16.20;99.90;;;;;;5113884;28;20197;-69
2022/07/01 04:46:30;;;;;;;1.70;1.60;;;16.20;99.90;;;;;;5113941;28;20292;-68
2022/07/01 04:48:57;;;;;;;1.40;1.30;;;16.20;99.90;;;;;;5113908;28;20292;-68
2022/07/01 04:51:24;;;;;;;1.60;1.50;;;16.20;99.90;;;;;;5113602;28;20783;-68
2022/07/01 04:53:51;;;;;;;1.95;1.50;;;16.20;99.90;;;;;;5113713;28;20203;-69
2022/07/01 04:56:20;;;;;;;1.60;1.50;;;16.00;99.90;;;;;;5113876;28;20306;-68
2022/07/01 04:58:47;;;;;;;1.85;1.52;;;15.90;99.90;;;;;;5113685;28;20204;-68
2022/07/01 05:01:14;;;;;;;1.88;1.38;;;15.90;99.90;;;;;;5113783;28;20220;-69
2022/07/01 05:03:41;;;;;;;1.58;1.48;;;16.00;99.90;;;;;;5113680;28;20253;-69
2022/07/01 05:06:08;;;;;;;1.60;1.50;;;15.90;99.90;;;;;;5113800;28;20296;-68
2022/07/01 05:08:35;;;;;;;1.50;1.40;;;16.00;99.90;;;;;;5113492;28;20294;-68
2022/07/01 05:11:02;;;;;;;1.60;1.50;;;15.90;99.90;;;;;;5113684;28;20319;-68
2022/07/01 05:13:30;;;;;;;3.47;3.17;;;15.80;99.90;;;;;;5113763;28;20205;-68
2022/07/01 05:15:57;;;;;;;3.28;2.97;;;15.80;99.90;;;;;;5115710;28;20242;-68
2022/07/01 05:23:52;;;;;;;2.80;2.00;;;15.50;99.90;;;;;;5117311;28;20249;-68
2022/07/01 05:26:20;;;;;;;1.90;1.80;;;15.40;99.90;;;;;;5117314;27;20727;-69
2022/07/01 05:28:48;;;;;;;3.00;1.90;;;15.40;99.90;;;;;;5117377;28;20203;-68
2022/07/01 05:31:15;;;;;;;2.10;1.77;;;15.40;99.90;;;;;;5117275;28;20274;-68
2022/07/01 05:33:42;;;;;;;1.70;1.60;;;15.50;99.90;;;;;;5117234;28;20204;-69
2022/07/01 05:36:09;;;;;;;2.17;2.00;;;15.50;99.90;;;;;;5116929;28;20695;-68
2022/07/01 05:38:36;;;;;;;2.10;2.00;;;15.60;99.90;;;;;;5117102;28;20242;-68
2022/07/01 05:41:03;;;;;;;2.90;2.13;;;15.60;99.90;;;;;;5116769;28;20220;-69
2022/07/01 05:43:30;;;;;;;3.20;2.90;;;15.60;99.90;;;;;;5117072;28;20581;-68
2022/07/01 05:45:59;;;;;;;2.53;2.33;;;15.60;99.90;;;;;;5116672;28;20200;-68
2022/07/01 05:48:26;;;;;;;2.35;2.20;;;15.60;99.90;;;;;;5116988;28;20295;-68
2022/07/01 05:50:53;;;;;;;2.30;2.10;;;15.60;99.90;;;;;;5116946;28;20318;-68
2022/07/01 05:53:20;;;;;;;2.55;2.10;;;15.60;99.90;;;;;;5116847;28;20292;-68
2022/07/01 05:55:47;;;;;;;4.20;3.10;;;15.70;99.90;;;;;;5116432;28;20296;-68
2022/07/01 05:58:15;;;;;;;2.95;2.60;;;15.70;99.90;;;;;;5116798;27;20295;-68
2022/07/01 06:00:42;;;;;;;4.07;2.55;;;15.70;99.90;;;;;;5116425;28;20299;-68
2022/07/01 06:03:11;;;;;;;3.53;2.88;;;15.70;99.90;;;;;;5116499;28;20227;-68
2022/07/01 06:05:38;;;;;;;2.85;2.65;;;15.80;99.90;;;;;;5116505;28;20291;-68
2022/07/01 06:08:05;;;;;;;3.30;3.00;;;15.70;99.90;;;;;;5116212;28;20211;-68
2022/07/01 06:10:33;;;;;;;3.35;2.95;;;15.50;99.90;;;;;;5116535;28;20315;-69
2022/07/01 06:13:00;;;;;;;3.15;2.95;;;15.50;99.90;;;;;;5116180;28;20286;-68
2022/07/01 06:15:27;;;;;;;3.92;2.95;;;15.60;99.90;;;;;;5116144;28;20293;-68
2022/07/01 06:17:56;;;;;;;3.30;2.97;;;15.60;99.90;;;;;;5116325;28;20298;-68
2022/07/01 06:20:24;;;;;;;3.50;3.20;;;15.60;99.90;;;;;;5116055;28;20224;-68
2022/07/01 06:22:51;;;;;;;3.00;2.70;;;15.60;99.90;;;;;;5116259;28;20319;-69
2022/07/01 06:25:18;;;;;;;2.85;2.40;;;15.70;99.90;;;;;;5115988;28;20732;-69
2022/07/01 06:27:46;;;;;;;3.20;2.90;;;15.80;99.90;;;;;;5115296;28;20208;-68
2022/07/01 06:30:14;;;;;;;2.65;2.45;;;15.70;99.90;;;;;;5116563;28;20232;-68
2022/07/01 06:32:41;;;;;;;3.75;2.95;;;15.70;99.90;;;;;;5116208;28;20282;-68
2022/07/01 06:35:09;;;;;;;4.30;3.00;;;15.70;99.90;;;;;;5115739;28;20748;-68
2022/07/01 06:37:37;;;;;;;3.20;3.00;;;15.40;99.90;;;;;;5115839;28;20203;-68
2022/07/01 06:40:06;;;;;;;5.05;3.40;;;15.20;99.90;;;;;;5115685;28;20230;-68
2022/07/01 06:42:34;;;;;;;3.88;3.58;;;15.10;99.90;;;;;;5115709;28;20859;-68
2022/07/01 06:45:01;;;;;;;3.45;3.00;;;15.20;99.90;;;;;;5115591;28;20295;-68
2022/07/01 06:47:28;;;;;;;3.17;2.88;;;15.30;99.90;;;;;;5115795;28;20557;-69
2022/07/01 06:49:55;;;;;;;3.25;2.42;;;15.50;99.90;;;;;;5115777;28;20230;-68
2022/07/01 06:52:22;;;;;;;4.05;2.88;;;15.50;99.90;;;;;;5115523;28;20729;-69
2022/07/01 06:54:50;;;;;;;3.90;3.60;;;15.60;99.90;;;;;;5115419;28;20308;-68
2022/07/01 06:57:18;;;;;;;3.88;3.22;;;15.40;99.90;;;;;;5115659;28;20298;-68
2022/07/01 06:59:45;;;;;;;3.80;2.70;;;15.50;99.90;;;;;;5115564;28;20318;-68
2022/07/01 07:02:12;;;;;;;2.95;2.65;;;15.40;99.90;;;;;;5115572;28;20295;-68
2022/07/01 07:04:38;;;;;;;3.17;2.90;;;15.40;99.90;;;;;;5115304;28;20322;-68
2022/07/01 07:07:05;;;;;;;3.22;2.92;;;15.60;99.90;;;;;;5115364;28;20261;-68
2022/07/01 07:09:32;;;;;;;2.80;2.50;;;15.70;99.90;;;;;;5115184;28;20263;-69
2022/07/01 07:12:00;;;;;;;2.80;2.60;;;15.70;99.90;;;;;;5115079;28;20294;-68
2022/07/01 07:14:27;;;;;;;3.17;2.88;;;15.80;99.90;;;;;;5115074;28;20286;-68
2022/07/01 07:16:55;;;;;;;4.68;2.95;;;15.80;99.90;;;;;;5115200;28;20299;-68
2022/07/01 07:19:22;;;;;;;3.50;3.20;;;15.80;99.90;;;;;;5114903;28;20208;-68
2022/07/01 07:21:49;;;;;;;3.22;2.85;;;15.80;99.90;;;;;;5115216;28;20203;-68
2022/07/01 07:24:16;;;;;;;3.35;2.90;;;15.80;99.90;;;;;;5114847;28;20220;-68
2022/07/01 07:26:42;;;;;;;3.50;3.20;;;15.80;99.90;;;;;;5114977;28;20235;-68
2022/07/01 07:29:11;;;;;;;6.43;2.80;;;15.60;99.90;;;;;;5114870;28;20295;-68
2022/07/01 07:31:38;;;;;;;3.28;2.72;;;15.70;99.90;;;;;;5114989;28;20213;-68
2022/07/01 07:34:05;;;;;;;3.05;2.85;;;15.60;99.90;;;;;;5114746;28;20291;-68
2022/07/01 07:36:32;;;;;;;2.78;2.58;;;15.80;99.90;;;;;;5114703;28;20300;-68
2022/07/01 07:38:59;;;;;;;3.00;2.60;;;15.90;99.90;;;;;;5114846;28;20205;-68
2022/07/01 07:41:26;;;;;;;2.60;2.40;;;15.90;99.90;;;;;;5114485;28;20227;-68
2022/07/01 07:43:52;;;;;;;2.53;2.33;;;15.80;99.90;;;;;;5114423;28;20641;-68
2022/07/01 07:46:21;;;;;;;2.85;2.55;;;15.70;99.90;;;;;;5114726;28;20637;-69
2022/07/01 07:48:47;;;;;;;2.55;2.35;;;15.80;99.90;;;;;;5114669;28;20295;-68
2022/07/01 07:51:17;;;;;;;2.45;2.25;;;15.90;99.90;;;;;;5114655;28;20581;-68
2022/07/01 07:53:44;;;;;;;2.53;2.33;;;15.90;99.90;;;;;;5114321;28;20658;-69
2022/07/01 07:56:11;;;;;;;2.45;2.25;;;16.10;99.90;;;;;;5114517;28;20200;-69
2022/07/01 07:58:41;;;;;;;2.00;1.90;;;16.10;99.90;;;;;;5114440;28;20232;-69
2022/07/01 08:01:09;;;;;;;4.25;2.47;;;16.10;99.90;;;;;;5114720;28;20231;-68
2022/07/01 08:03:37;;;;;;;2.78;2.35;;;16.20;99.90;;;;;;5114388;28;20680;-69
2022/07/01 08:06:04;;;;;;;2.42;2.22;;;16.20;99.90;;;;;;5114221;28;20546;-69
2022/07/01 08:08:31;;;;;;;2.90;2.67;;;16.10;99.90;;;;;;5114216;28;20214;-68
2022/07/01 08:10:58;;;;;;;3.00;2.70;;;16.20;99.90;;;;;;5114073;28;20319;-68
2022/07/01 08:13:25;;;;;;;3.10;2.80;;;16.20;99.90;;;;;;5113992;28;20291;-69
2022/07/01 08:15:52;;;;;;;4.03;3.10;;;16.30;99.90;;;;;;5114099;28;20312;-68
2022/07/01 08:18:19;;;;;;;3.45;3.15;;;16.30;99.90;;;;;;5114106;28;20295;-68
2022/07/01 08:20:47;;;;;;;3.33;2.47;;;16.30;99.90;;;;;;5114148;28;20253;-68
2022/07/01 08:23:14;;;;;;;2.58;2.38;;;16.40;99.90;;;;;;5114082;28;20310;-68
2022/07/01 08:25:41;;;;;;;3.53;3.17;;;16.50;99.90;;;;;;5113715;28;20301;-68
2022/07/01 08:28:08;;;;;;;3.60;3.10;;;16.50;99.90;;;;;;5114080;28;20291;-68
2022/07/01 08:30:35;;;;;;;2.70;2.50;;;16.40;99.90;;;;;;5114078;28;20260;-69
2022/07/01 08:33:02;;;;;;;3.20;3.00;;;16.50;99.90;;;;;;5114056;28;20247;-68
2022/07/01 08:35:29;;;;;;;3.60;3.28;;;16.40;99.90;;;;;;5113972;28;20258;-68
2022/07/01 08:37:58;;;;;;;3.35;3.05;;;16.30;99.90;;;;;;5113939;28;20291;-68
2022/07/01 08:40:29;;;;;;;3.80;3.30;;;16.30;99.90;;;;;;5113690;28;20307;-68
2022/07/01 08:42:58;;;;;;;3.00;2.80;;;16.30;99.90;;;;;;5113708;28;20297;-68
2022/07/01 08:45:27;;;;;;;2.72;2.53;;;16.30;99.90;;;;;;5113776;28;20201;-68
2022/07/01 08:47:57;;;;;;;2.83;2.63;;;16.30;99.90;;;;;;5113934;28;20227;-68
2022/07/01 08:50:25;;;;;;;3.03;2.83;;;16.30;99.90;;;;;;5115433;28;20232;-69
2022/07/01 08:52:52;;;;;;;3.28;3.00;;;16.20;99.90;;;;;;5118080;28;20211;-68
2022/07/01 08:55:22;;;;;;;2.95;2.75;;;16.20;99.90;;;;;;5117904;28;20747;-68
2022/07/01 08:57:49;;;;;;;2.92;2.63;;;16.20;99.90;;;;;;5117999;28;20296;-68
2022/07/01 09:00:17;;;;;;;2.80;2.60;;;16.00;99.90;;;;;;5117728;28;20314;-68
2022/07/01 09:02:55;;;;;;;2.88;2.67;;;16.10;99.90;;;;;;5117659;27;20296;-68
2022/07/01 09:05:23;;;;;;;3.75;2.97;;;16.00;99.90;;;;;;5117473;28;20231;-68
2022/07/01 09:07:56;;;;;;;3.40;3.10;;;15.80;99.90;;;;;;5117483;28;20765;-68
2022/07/01 09:10:26;;;;;;;2.60;2.30;;;15.80;99.90;;;;;;5117728;28;20253;-68
2022/07/01 09:12:53;;;;;;;2.70;2.50;;;15.90;99.90;;;;;;5117699;28;20200;-68
2022/07/01 09:15:29;;;;;;;2.65;2.45;;;15.90;99.90;;;;;;5117291;28;20200;-68
2022/07/01 09:17:58;;;;;;;3.05;2.80;;;15.90;99.90;;;;;;5117670;28;20611;-68
2022/07/01 09:20:30;;;;;;;4.55;2.83;;;16.00;99.90;;;;;;5117221;28;20310;-68
2022/07/01 09:23:01;;;;;;;3.00;2.70;;;15.90;99.90;;;;;;5117506;28;20288;-68
2022/07/01 09:25:31;;;;;;;3.58;3.28;;;15.90;99.90;;;;;;5117015;28;20307;-68
2022/07/01 09:28:09;;;;;;;3.30;3.00;;;15.90;99.90;;;;;;5117410;28;20627;-68
2022/07/01 09:30:37;;;;;;;4.45;3.30;;;15.80;99.90;;;;;;5117368;28;20238;-69
2022/07/01 09:33:08;;;;;;;4.35;3.95;;;15.60;99.90;;;;;;5117127;28;20207;-69
2022/07/01 09:35:36;;;;;;;4.00;3.70;;;15.30;99.90;;;;;;5116943;28;20687;-68
2022/07/01 09:38:03;;;;;;;4.93;3.63;;;15.40;99.90;;;;;;5116923;28;20293;-68
2022/07/01 09:40:50;;;;;;;4.45;3.63;;;15.30;99.90;;;;;;5116988;28;20310;-69
2022/07/01 09:43:19;;;;;;;3.60;3.30;;;15.10;99.90;;;;;;5101347;28;20294;-70
2022/07/01 09:45:54;;;;;;;3.20;2.90;;;15.20;99.90;;;;;;5115720;28;20298;-69
2022/07/01 09:48:22;;;;;;;3.67;3.38;;;15.10;99.90;;;;;;5115662;28;20621;-69
2022/07/01 09:50:50;;;;;;;3.05;2.85;;;15.00;99.90;;;;;;5115542;27;20314;-69
2022/07/01 09:53:17;;;;;;;3.83;3.42;;;14.80;99.90;;;;;;5115437;27;20295;-71
2022/07/01 09:55:44;;;;;;;3.50;3.30;;;14.80;99.90;;;;;;5115061;28;20207;-69
2022/07/01 09:58:13;;;;;;;3.65;3.35;;;14.80;99.90;;;;;;5115269;28;20298;-70
2022/07/01 10:00:41;;;;;;;3.95;3.55;;;14.80;99.90;;;;;;5115403;28;20322;-69
2022/07/01 10:03:08;;;;;;;4.40;3.00;;;14.90;99.90;;;;;;5115814;28;20301;-68
2022/07/01 10:05:42;;;;;;;4.20;2.90;;;15.00;99.90;;;;;;5114753;28;20263;-70
2022/07/01 10:08:43;;;;;;;3.65;3.10;;;15.10;99.90;;;;;;5115139;28;20633;-69
2022/07/01 10:11:42;;;;;;;3.00;2.80;;;15.20;99.90;;;;;;5078473;28;20317;-70
2022/07/01 10:14:12;;;;;;;3.35;3.15;;;15.40;99.90;;;;;;5083699;28;20570;-70
2022/07/01 10:16:40;;;;;;;4.05;2.92;;;15.50;99.90;;;;;;5115283;28;20637;-70
2022/07/01 10:19:28;;;;;;;5.47;3.40;;;15.50;99.90;;;;;;5115050;28;20630;-69
2022/07/01 10:21:58;;;;;;;3.30;3.00;;;15.60;99.90;;;;;;5114853;28;20250;-69
2022/07/01 10:24:26;;;;;;;3.35;3.03;;;15.80;99.90;;;;;;5114708;28;20217;-69
2022/07/01 10:26:58;;;;;;;5.15;3.33;;;15.80;99.90;;;;;;5115215;28;20291;-69
2022/07/01 10:29:34;;;;;;;4.40;3.70;;;15.90;99.90;;;;;;5114825;28;20290;-70
2022/07/01 10:32:03;;;;;;;3.80;3.40;;;15.80;99.90;;;;;;5114741;28;20295;-69
2022/07/01 10:34:37;;;;;;;4.47;3.97;;;15.80;99.90;;;;;;5114704;28;20288;-71
2022/07/01 10:37:08;;;;;;;3.88;3.30;;;16.00;99.90;;;;;;5114942;27;20298;-70
2022/07/01 10:39:55;;;;;;;2.92;2.72;;;16.10;99.90;;;;;;5114616;28;20263;-70
2022/07/01 10:42:22;;;;;;;3.63;3.08;;;16.10;99.90;;;;;;5114787;27;20287;-70
2022/07/01 10:45:09;;;;;;;3.08;2.88;;;16.00;99.90;;;;;;5114612;27;20260;-70
2022/07/01 10:47:37;;;;;;;2.90;2.45;;;16.30;99.90;;;;;;5114624;28;20288;-69
2022/07/01 10:50:06;;;;;;;2.65;2.45;;;16.50;99.90;;;;;;5114541;28;20231;-69
2022/07/01 10:52:34;;;;;;;2.50;2.30;;;16.80;99.90;;;;;;5114630;27;20632;-71
2022/07/01 10:55:02;;;;;;;2.50;2.30;;;17.10;99.90;;;;;;5114479;28;20288;-70
2022/07/01 10:57:35;;;;;;;2.65;2.45;;;17.40;99.90;;;;;;5114164;28;20292;-70
2022/07/01 11:00:35;;;;;;;3.85;2.53;;;17.40;99.90;;;;;;5114707;28;20229;-71
2022/07/01 11:03:23;;;;;;;3.42;2.40;;;17.40;99.90;;;;;;5114583;28;20255;-71
2022/07/01 11:05:55;;;;;;;3.75;2.83;;;17.40;99.90;;;;;;5114126;28;20256;-70
2022/07/01 11:08:23;;;;;;;3.50;3.10;;;17.50;99.90;;;;;;5114277;27;20209;-70
2022/07/01 11:10:56;;;;;;;3.17;2.83;;;17.30;99.90;;;;;;5114627;28;20249;-70
2022/07/01 11:13:25;;;;;;;3.42;3.13;;;17.20;99.90;;;;;;5113793;28;20257;-69
2022/07/01 11:15:53;;;;;;;3.10;2.80;;;17.10;99.90;;;;;;5113682;28;20633;-70
2022/07/01 11:18:20;;;;;;;3.47;2.95;;;16.80;99.90;;;;;;5113905;28;20323;-68
2022/07/01 11:20:47;;;;;;;3.13;2.92;;;16.80;99.90;;;;;;5114387;28;20316;-68
2022/07/01 11:23:16;;;;;;;3.05;2.85;;;16.70;99.90;;;;;;5114127;28;20212;-69
2022/07/01 11:25:43;;;;;;;3.03;2.80;;;16.70;99.90;;;;;;5113560;28;20221;-70
2022/07/01 11:28:12;;;;;;;2.60;2.40;;;16.60;99.90;;;;;;5113908;28;20292;-70
2022/07/01 11:30:39;;;;;;;2.30;2.20;;;16.70;99.90;;;;;;5113921;28;20233;-69
2022/07/01 11:33:10;;;;;;;3.88;3.08;;;16.80;99.90;;;;;;5113738;28;20301;-68
2022/07/01 11:41:09;;;;;;;2.55;2.20;;;17.00;99.90;;;;;;5113401;28;20216;-68
2022/07/01 11:43:38;;;;;;;2.88;2.67;;;17.00;99.90;;;;;;5113402;28;20292;-68
2022/07/01 11:46:07;;;;;;;2.50;2.30;;;16.90;99.90;;;;;;5114014;28;20311;-69
2022/07/01 11:48:39;;;;;;;2.90;2.30;;;16.90;99.90;;;;;;5114704;28;20295;-69
2022/07/01 11:51:12;;;;;;;2.30;2.20;;;17.10;99.90;;;;;;5114431;28;20289;-69
2022/07/01 11:53:40;;;;;;;5.28;2.42;;;17.30;99.90;;;;;;5114681;28;20221;-69
2022/07/01 11:56:07;;;;;;;2.63;2.40;;;17.60;99.90;;;;;;5114512;28;20294;-69
2022/07/01 11:58:51;;;;;;;2.45;2.20;;;17.90;99.90;;;;;;5114530;28;20299;-69
2022/07/01 12:01:22;;;;;;;1.95;1.83;;;18.30;99.90;;;;;;5114546;28;20222;-69
2022/07/01 12:03:51;;;;;;;2.30;2.20;;;18.40;99.90;;;;;;5114308;28;20288;-69
2022/07/01 12:06:19;;;;;;;2.42;2.22;;;18.50;99.90;;;;;;5114127;28;20317;-69
2022/07/01 12:08:47;;;;;;;2.85;2.65;;;18.40;99.90;;;;;;5114446;28;20212;-69
2022/07/01 12:11:14;;;;;;;2.33;2.22;;;18.30;99.90;;;;;;5114311;28;20226;-69
2022/07/01 12:13:41;;;;;;;2.50;2.40;;;18.50;99.90;;;;;;5114329;28;20298;-69
2022/07/01 12:16:09;;;;;;;2.40;2.20;;;18.60;99.90;;;;;;5114202;28;20288;-69
2022/07/01 12:18:36;;;;;;;2.50;2.40;;;18.80;99.90;;;;;;5114183;28;20523;-69
2022/07/01 12:21:05;;;;;;;2.60;2.40;;;19.10;99.90;;;;;;5113921;28;20510;-69
2022/07/01 12:23:36;;;;;;;2.50;2.30;;;19.20;99.90;;;;;;5114183;28;20862;-69
2022/07/01 12:26:05;;;;;;;2.43;2.23;;;19.40;99.90;;;;;;5113196;28;20477;-69
2022/07/01 12:28:34;;;;;;;2.30;2.20;;;19.30;99.90;;;;;;5114128;28;20440;-69
2022/07/01 12:31:07;;;;;;;2.23;2.10;;;19.30;99.90;;;;;;5113904;28;20495;-69
2022/07/01 12:33:36;;;;;;;2.30;2.13;;;19.60;99.90;;;;;;5114278;28;20823;-69
2022/07/01 12:36:05;;;;;;;2.23;2.10;;;19.80;99.90;;;;;;5113916;28;20527;-69
2022/07/01 12:38:32;;;;;;;2.33;2.20;;;19.80;99.90;;;;;;5114199;28;20536;-69
2022/07/01 12:41:00;;;;;;;2.97;2.30;;;19.80;99.90;;;;;;5113962;28;20555;-69
2022/07/01 12:43:29;;;;;;;2.37;2.17;;;19.50;99.90;;;;;;5113756;28;20444;-69
2022/07/01 12:45:58;;;;;;;2.90;2.70;;;19.50;99.90;;;;;;5113314;28;20826;-69
2022/07/01 12:48:24;;;;;;;2.87;2.67;;;19.40;99.90;;;;;;5113924;28;20801;-69
2022/07/01 12:50:54;;;;;;;2.63;2.43;;;19.20;99.90;;;;;;5114042;28;20874;-69
2022/07/01 12:53:23;;;;;;;2.97;2.77;;;19.10;99.90;;;;;;5113844;28;20450;-69
2022/07/01 12:55:52;;;;;;;2.63;2.43;;;18.90;99.90;;;;;;5113634;28;20443;-69
2022/07/01 12:58:22;;;;;;;3.38;2.70;;;18.80;99.90;;;;;;5113758;28;20477;-69
2022/07/01 13:00:50;;;;;;;2.75;2.50;;;18.70;99.90;;;;;;5113430;28;20226;-69
2022/07/01 13:03:22;;;;;;;2.50;2.30;;;18.70;99.90;;;;;;5113799;28;20292;-69
2022/07/01 13:05:49;;;;;;;3.93;2.87;;;18.70;99.90;;;;;;5113538;28;20263;-69
2022/07/01 13:08:16;;;;;;;2.85;2.65;;;18.70;99.90;;;;;;5113410;28;20452;-69
2022/07/01 13:10:46;;;;;;;3.10;2.90;;;18.50;99.90;;;;;;5113559;28;20315;-69
2022/07/01 13:13:13;;;;;;;2.88;2.60;;;18.40;99.90;;;;;;5113433;28;20292;-69
2022/07/01 13:15:40;;;;;;;4.43;3.50;;;18.40;99.90;;;;;;5113304;28;20240;-69